Clarington, PA

12:37 AM EST on December 10, 2019 (GMT -0500)
Sigel, Pennsylvania-Gateway to Cookforest State Park. | | Change Station

Elev 1804 ft 41.26 °N, 79.11 °W | Updated 4 minutes ago

Overcast
Overcast
52.2 °F
Feels Like 52.2 °F
N
4.7
Wind Variable Wind from West
Gusts 0.0 mph

Today
High -- | Low -- °F
--% Chance of Precip.
Yesterday
High -- | Low -- °F
Precip. -- in
Pressure 29.60 in
Visibility 6.0 miles
Clouds Mostly Cloudy 800 ft
Overcast 1300 ft
Dew Point 52 °F
Humidity 99%
Rainfall 1.98 in
Snow Depth Not available.
7:31 AM 4:47 PM
Waxing Gibbous, 96% visible
METAR KDUJ 100453Z AUTO 23018G24KT 6SM -RA BR BKN008 OVC013 12/11 A2958 RMK AO2 PK WND 22029/0418 RAB01 CIG 005V010 SLP023 P0011 T01170106 401220011
Pressure 29.60 in
Visibility 6.0 miles
Clouds Mostly Cloudy 800 ft
Overcast 1300 ft
Dew Point 52 °F
Humidity 99%
Rainfall 1.98 in
Snow Depth Not available.
7:31 AM 4:47 PM
Waxing Gibbous, 96% visible
METAR KDUJ 100453Z AUTO 23018G24KT 6SM -RA BR BKN008 OVC013 12/11 A2958 RMK AO2 PK WND 22029/0418 RAB01 CIG 005V010 SLP023 P0011 T01170106 401220011

Get Severe Weather Alerts

Thanks for signing up!

Be on the lookout for a verification email in your inbox.

You'll start receiving the daily forecast at 6 AM.

×

10-Day Weather Forecast

Almanac

Astronomy

Dec. 10, 2019 Rise Set
Actual Time
Civil Twilight
Nautical Twilight
Astronomical Twilight
Moon
Length of Visible Light
Length of Day
Tomorrow will be .
, % of the Moon is Illuminated

Today's Extremes

State Highs State Lows

Community

WunderPhotos

Category 6

Welcome to Category 6. This is the collective home for Weather Underground's featured writeups by Dr. Jeff Masters (right), Bob Henson (left), Chris Burt, and other regular contributors.

Nearby

Air Quality

  Air Quality AQ Index Pollutant
Not available.

Snow Depth

Station Depth Elevation

Earthquake Activity

City Distance Mag. Time & Date
Minimum magnitude displayed is 2.5.

Coastal Water Temperatures

Place Temperature

Stations

Nearby Weather Stations

Station Location Temp. Windchill Dew Point Humidity Wind Precip. Elev Updated Type
                   

Watches & Warnings

There are currently no watches in effect.